Stevenson, Maryland
Current Conditions -  °F | °C
As of 8:54 AM on Thursday 30 Oct 2014 (Local Time) from KBWI Reporting Station
Scattered Clouds Scattered Clouds  
Wind Chill: 45°   Ceiling: Unl
Heat Index: 48°   Visibility: 10mi
Dew Point: 41°   Wind: 7mph
Humidity: 77%   Direction: 290°WNW
Pressure: 30.05"   Gusts: NA
Location:  39.41°N, 76.71°W
Report Text: KBWI 301254Z 29006KT 10SM SCT070 SCT250 09/05 A3005 RMK AO2 SLP175 T00890050
Loading
Personal Weather Stations






























Interactive Weather Map
Tropical Storm Tracking
New forecast layout! Learn more

10-Day Weather Forecast

Advertisements
Track Severe Weather on mobile